Skip to main content
aboutsummaryrefslogtreecommitdiffstats
AgeCommit message (Expand)AuthorFilesLines
2020-07-20v4936r9v4936r9I20200720-1800Eclipse Releng Bot1-1/+1
2020-07-20v4936r9Eclipse Releng Bot2-3/+3
2020-07-20Build changes for chromium buildLakshmi Shanmugam1-4/+15
2020-07-20Bug 549585 - Contribute Chromium support to SWTNiraj Modi2-2/+2
2020-07-20Bug 549585 - Contribute Chromium support to SWTNiraj Modi4-10/+10
2020-07-20Bug 549585 - Contribute Chromium support to SWTSravan Kumar Lakkimsetti2-9/+9
2020-07-20Bug 549585 - Contribute Chromium support to SWTLakshmi Shanmugam3-11/+3
2020-07-20v4936r8v4936r8I20200720-0850Eclipse Releng Bot1-1/+1
2020-07-20v4936r8Eclipse Releng Bot2-3/+3
2020-07-20Bug 549585 - fixed wrong bundle version bumpAndrey Loskutov2-2/+2
2020-07-20Bug 549585 - Contribute Chromium support to SWTLakshmi Shanmugam1-1/+1
2020-07-20Bug 549585 - Contribute Chromium support to SWTNiraj Modi1-1/+1
2020-07-20Bug 565352 - search.tests and jdt.ui.tests DNF on linux fromAlexander Kurtakov2-32/+25
2020-07-20Bug 549585 - Contribute Chromium support to SWTGuillermo Zunino97-46/+22620
2020-07-17v4936r7v4936r7Y20200718-1200I20200720-0020I20200719-2010I20200718-1800I20200717-1800Eclipse Releng Bot1-1/+1
2020-07-17v4936r7Eclipse Releng Bot2-3/+3
2020-07-17Bug 565140 - [GTK4] Port GtkFileChooser changesPaul D'Pong7-52/+339
2020-07-17Bug 563189 - [GTK] SWT List.getItemHeight returns double the actual itemPaul D'Pong3-38/+46
2020-07-16v4936r6v4936r6cI20200716-1800Eclipse Releng Bot1-1/+1
2020-07-16Bug 559771 - [GTK] SWT.CHECK and SWT.MULTI Table space checks only firstPaul D'Pong1-15/+25
2020-07-15v4936r6v4936r6bY20200716-0820I20200715-1800Eclipse Releng Bot1-1/+1
2020-07-15Bug 565061 - faster deletion in TreeViewer.removeAll()Carsten Hammer1-9/+22
2020-07-14v4936r6v4936r6aY20200715-1200I20200714-1800Eclipse Releng Bot1-1/+1
2020-07-14Bug 563560: Document getDevice not recommended for ColorJonah Graham1-0/+5
2020-07-14Bug 563560: Document recommended constructors without Device argumentJonah Graham1-1/+12
2020-07-14Bug 300147 - TreeItem.getTextBounds() returns width of longest visibleLakshmi Shanmugam2-83/+56
2020-07-13v4936r6v4936r6I20200713-2230I20200713-1800Eclipse Releng Bot1-1/+1
2020-07-13v4936r6Eclipse Releng Bot2-3/+3
2020-07-13Revert "Bug 564809 - [GTK4] Adapt to GdkEvent API changes"Alexander Kurtakov29-901/+306
2020-07-10v4936r5v4936r5Y20200711-1200I20200712-1800I20200711-2250I20200711-1800I20200710-1800Eclipse Releng Bot1-1/+1
2020-07-10v4936r5Eclipse Releng Bot2-3/+3
2020-07-10Bug 565095 - [GTK4] Port GtkCalendar changesPaul D'Pong7-30/+289
2020-07-10Bug 564809 - [GTK4] Adapt to GdkEvent API changesPaul D'Pong29-306/+901
2020-07-10Bug 564799 - [GTK4] Adapt to GdkKeymap API changesPaul D'Pong7-42/+84
2020-07-10Bug 513185 - FillLayout throws ClassCastExecption for children withChristoph Läubrich2-9/+32
2020-07-10v4936r4v4936r4Eclipse Releng Bot1-1/+1
2020-07-10v4936r4Eclipse Releng Bot2-3/+3
2020-07-10Bug 560190 part3 - [Win32] Remove WebKit Browser backendNiraj Modi1-1/+1
2020-07-10Bug 560190 part2 - [Win32] Remove WebKit Browser backendNiraj Modi1-0/+4
2020-07-10Bug 560191 - [Win32] Remove unused functions, structures, constantsNikita Nemkin37-2286/+28
2020-07-10Bug 560190 - [Win32] Remove WebKit Browser backendNikita Nemkin46-6336/+2
2020-07-07v4936r3v4936r3tY20200708-1200S4_17_0_M1I20200710-0230I20200708-1800I20200708-0600I20200707-1800I20200707-0600Eclipse Releng Bot1-1/+1
2020-07-07Revert "Bug 513185 - FillLayout throws ClassCastExecption for children with"Karsten Thoms1-24/+4
2020-07-06v4936r3v4936r3sI20200706-2300I20200706-1800Eclipse Releng Bot1-1/+1
2020-07-06Bug 564464 - Replaced check by using Display.getDefault()Andreas Holtz1-2/+2
2020-07-06v4936r3v4936r3rI20200706-0600Eclipse Releng Bot1-1/+1
2020-07-06Bug 513185 - FillLayout throws ClassCastExecption for children withChristoph Läubrich1-4/+24
2020-07-05Use jdk 5 for-each loopCarsten Hammer4-14/+14
2020-07-02v4936r3v4936r3qY20200704-1200Y20200703-0300I20200705-1800I20200705-0710I20200705-0600I20200704-1800I20200704-0600I20200703-1800I20200702-2150I20200702-1800Eclipse Releng Bot1-1/+1
2020-07-02Bug 552980 - [Win32] Fix missing Taskbar detection on Windows Server CoreNikita Nemkin3-1/+11

Back to the top